sensor_id;sensor_type;location;lat;lon;timestamp;P1;durP1;ratioP1;P2;durP2;ratioP2
10939;SDS011;5522;42.696;23.494;2023-03-23T00:00:49;40.05;;;23.98;;
10939;SDS011;5522;42.696;23.494;2023-03-23T00:03:16;36.72;;;23.17;;
10939;SDS011;5522;42.696;23.494;2023-03-23T00:05:45;33.40;;;22.27;;
10939;SDS011;5522;42.696;23.494;2023-03-23T00:08:15;33.30;;;21.48;;
10939;SDS011;5522;42.696;23.494;2023-03-23T00:10:42;42.53;;;25.08;;
10939;SDS011;5522;42.696;23.494;2023-03-23T00:13:09;34.63;;;23.60;;
10939;SDS011;5522;42.696;23.494;2023-03-23T00:15:36;31.95;;;20.67;;
10939;SDS011;5522;42.696;23.494;2023-03-23T00:18:06;35.53;;;21.40;;
10939;SDS011;5522;42.696;23.494;2023-03-23T00:20:33;38.65;;;22.80;;
10939;SDS011;5522;42.696;23.494;2023-03-23T00:23:08;36.08;;;23.20;;
10939;SDS011;5522;42.696;23.494;2023-03-23T00:25:34;40.00;;;24.15;;
10939;SDS011;5522;42.696;23.494;2023-03-23T00:28:01;34.92;;;22.85;;
10939;SDS011;5522;42.696;23.494;2023-03-23T00:30:29;30.48;;;22.17;;
10939;SDS011;5522;42.696;23.494;2023-03-23T00:32:56;36.88;;;22.23;;
10939;SDS011;5522;42.696;23.494;2023-03-23T00:35:22;37.25;;;24.50;;
10939;SDS011;5522;42.696;23.494;2023-03-23T00:37:50;40.03;;;25.90;;
10939;SDS011;5522;42.696;23.494;2023-03-23T00:40:18;34.85;;;24.42;;
10939;SDS011;5522;42.696;23.494;2023-03-23T00:42:45;42.58;;;26.50;;
10939;SDS011;5522;42.696;23.494;2023-03-23T00:45:13;41.83;;;25.23;;
10939;SDS011;5522;42.696;23.494;2023-03-23T00:47:41;37.13;;;23.02;;
10939;SDS011;5522;42.696;23.494;2023-03-23T00:50:11;36.63;;;23.08;;
10939;SDS011;5522;42.696;23.494;2023-03-23T00:52:39;42.25;;;24.95;;
10939;SDS011;5522;42.696;23.494;2023-03-23T00:55:07;61.03;;;24.60;;
10939;SDS011;5522;42.696;23.494;2023-03-23T00:57:35;46.03;;;24.25;;
10939;SDS011;5522;42.696;23.494;2023-03-23T01:07:46;42.13;;;25.58;;
10939;SDS011;5522;42.696;23.494;2023-03-23T01:10:13;41.90;;;24.67;;
10939;SDS011;5522;42.696;23.494;2023-03-23T01:12:44;38.38;;;25.50;;
10939;SDS011;5522;42.696;23.494;2023-03-23T01:15:15;39.90;;;25.92;;
10939;SDS011;5522;42.696;23.494;2023-03-23T01:17:43;44.35;;;25.10;;
10939;SDS011;5522;42.696;23.494;2023-03-23T01:22:45;38.97;;;24.65;;
10939;SDS011;5522;42.696;23.494;2023-03-23T01:25:13;41.45;;;23.92;;
10939;SDS011;5522;42.696;23.494;2023-03-23T01:27:40;36.17;;;23.42;;
10939;SDS011;5522;42.696;23.494;2023-03-23T01:30:10;44.47;;;25.50;;
10939;SDS011;5522;42.696;23.494;2023-03-23T01:32:38;43.22;;;24.63;;
10939;SDS011;5522;42.696;23.494;2023-03-23T01:35:05;42.85;;;24.42;;
10939;SDS011;5522;42.696;23.494;2023-03-23T01:37:32;65.47;;;25.55;;
10939;SDS011;5522;42.696;23.494;2023-03-23T01:39:59;94.75;;;29.60;;
10939;SDS011;5522;42.696;23.494;2023-03-23T01:42:29;59.40;;;26.25;;
10939;SDS011;5522;42.696;23.494;2023-03-23T01:48:03;97.03;;;31.13;;
10939;SDS011;5522;42.696;23.494;2023-03-23T01:50:36;77.30;;;31.10;;
10939;SDS011;5522;42.696;23.494;2023-03-23T01:53:09;72.28;;;29.80;;
10939;SDS011;5522;42.696;23.494;2023-03-23T01:55:38;73.65;;;34.40;;
10939;SDS011;5522;42.696;23.494;2023-03-23T01:58:07;143.07;;;66.28;;
10939;SDS011;5522;42.696;23.494;2023-03-23T02:00:37;107.55;;;49.15;;
10939;SDS011;5522;42.696;23.494;2023-03-23T02:03:08;167.25;;;60.55;;
10939;SDS011;5522;42.696;23.494;2023-03-23T02:05:39;136.68;;;42.63;;
10939;SDS011;5522;42.696;23.494;2023-03-23T02:08:07;223.18;;;52.65;;
10939;SDS011;5522;42.696;23.494;2023-03-23T02:10:36;131.82;;;47.42;;
10939;SDS011;5522;42.696;23.494;2023-03-23T02:13:04;128.40;;;47.38;;
10939;SDS011;5522;42.696;23.494;2023-03-23T02:15:35;135.02;;;43.30;;
10939;SDS011;5522;42.696;23.494;2023-03-23T02:18:12;159.55;;;36.03;;
10939;SDS011;5522;42.696;23.494;2023-03-23T02:21:16;116.70;;;34.53;;
10939;SDS011;5522;42.696;23.494;2023-03-23T02:24:04;156.80;;;38.70;;
10939;SDS011;5522;42.696;23.494;2023-03-23T02:26:50;214.23;;;40.47;;
10939;SDS011;5522;42.696;23.494;2023-03-23T02:29:44;131.88;;;37.03;;
10939;SDS011;5522;42.696;23.494;2023-03-23T02:32:23;76.57;;;30.88;;
10939;SDS011;5522;42.696;23.494;2023-03-23T02:35:07;133.45;;;33.38;;
10939;SDS011;5522;42.696;23.494;2023-03-23T02:37:39;131.98;;;33.85;;
10939;SDS011;5522;42.696;23.494;2023-03-23T02:40:14;186.77;;;34.67;;
10939;SDS011;5522;42.696;23.494;2023-03-23T02:42:46;145.38;;;33.55;;
10939;SDS011;5522;42.696;23.494;2023-03-23T02:45:16;235.85;;;38.38;;
10939;SDS011;5522;42.696;23.494;2023-03-23T02:47:45;214.73;;;37.95;;
10939;SDS011;5522;42.696;23.494;2023-03-23T02:50:16;208.63;;;40.33;;
10939;SDS011;5522;42.696;23.494;2023-03-23T02:52:46;375.23;;;44.33;;
10939;SDS011;5522;42.696;23.494;2023-03-23T02:55:15;125.88;;;33.40;;
10939;SDS011;5522;42.696;23.494;2023-03-23T02:57:43;171.57;;;35.63;;
10939;SDS011;5522;42.696;23.494;2023-03-23T03:00:12;144.55;;;35.30;;
10939;SDS011;5522;42.696;23.494;2023-03-23T03:02:42;144.63;;;38.00;;
10939;SDS011;5522;42.696;23.494;2023-03-23T03:05:14;115.60;;;36.15;;
10939;SDS011;5522;42.696;23.494;2023-03-23T03:07:50;205.60;;;37.05;;
10939;SDS011;5522;42.696;23.494;2023-03-23T03:10:26;182.57;;;35.65;;
10939;SDS011;5522;42.696;23.494;2023-03-23T03:12:58;411.23;;;43.13;;
10939;SDS011;5522;42.696;23.494;2023-03-23T03:15:30;218.48;;;36.00;;
10939;SDS011;5522;42.696;23.494;2023-03-23T03:18:03;148.57;;;34.83;;
10939;SDS011;5522;42.696;23.494;2023-03-23T03:20:40;146.80;;;31.33;;
10939;SDS011;5522;42.696;23.494;2023-03-23T03:23:12;162.02;;;31.70;;
10939;SDS011;5522;42.696;23.494;2023-03-23T03:25:40;121.20;;;32.55;;
10939;SDS011;5522;42.696;23.494;2023-03-23T03:28:12;164.90;;;33.75;;
10939;SDS011;5522;42.696;23.494;2023-03-23T03:30:41;146.52;;;31.58;;
10939;SDS011;5522;42.696;23.494;2023-03-23T03:33:11;87.28;;;30.73;;
10939;SDS011;5522;42.696;23.494;2023-03-23T03:35:40;118.88;;;30.25;;
10939;SDS011;5522;42.696;23.494;2023-03-23T03:38:09;117.70;;;30.08;;
10939;SDS011;5522;42.696;23.494;2023-03-23T03:40:37;367.00;;;38.67;;
10939;SDS011;5522;42.696;23.494;2023-03-23T03:43:04;143.48;;;31.77;;
10939;SDS011;5522;42.696;23.494;2023-03-23T03:45:33;304.08;;;41.50;;
10939;SDS011;5522;42.696;23.494;2023-03-23T03:48:00;82.40;;;29.63;;
10939;SDS011;5522;42.696;23.494;2023-03-23T03:50:27;122.85;;;31.70;;
10939;SDS011;5522;42.696;23.494;2023-03-23T03:52:56;77.10;;;28.17;;
10939;SDS011;5522;42.696;23.494;2023-03-23T03:55:23;130.10;;;32.53;;
10939;SDS011;5522;42.696;23.494;2023-03-23T03:57:50;69.53;;;28.67;;
10939;SDS011;5522;42.696;23.494;2023-03-23T04:00:17;178.32;;;34.50;;
10939;SDS011;5522;42.696;23.494;2023-03-23T04:02:45;97.18;;;31.05;;
10939;SDS011;5522;42.696;23.494;2023-03-23T04:05:16;200.57;;;36.88;;
10939;SDS011;5522;42.696;23.494;2023-03-23T04:07:45;77.30;;;26.13;;
10939;SDS011;5522;42.696;23.494;2023-03-23T04:10:15;108.40;;;29.27;;
10939;SDS011;5522;42.696;23.494;2023-03-23T04:12:44;171.02;;;31.73;;
10939;SDS011;5522;42.696;23.494;2023-03-23T04:15:11;317.63;;;38.03;;
10939;SDS011;5522;42.696;23.494;2023-03-23T04:17:38;117.95;;;31.85;;
10939;SDS011;5522;42.696;23.494;2023-03-23T04:20:06;273.58;;;38.30;;
10939;SDS011;5522;42.696;23.494;2023-03-23T04:22:40;106.47;;;31.20;;
10939;SDS011;5522;42.696;23.494;2023-03-23T04:25:09;199.95;;;33.50;;
10939;SDS011;5522;42.696;23.494;2023-03-23T04:27:38;86.80;;;29.27;;
10939;SDS011;5522;42.696;23.494;2023-03-23T04:30:09;399.85;;;58.45;;
10939;SDS011;5522;42.696;23.494;2023-03-23T04:32:38;338.95;;;54.35;;
10939;SDS011;5522;42.696;23.494;2023-03-23T04:35:07;215.23;;;39.80;;
10939;SDS011;5522;42.696;23.494;2023-03-23T04:37:36;202.85;;;36.60;;
10939;SDS011;5522;42.696;23.494;2023-03-23T04:40:04;119.35;;;32.00;;
10939;SDS011;5522;42.696;23.494;2023-03-23T04:42:37;177.38;;;37.47;;
10939;SDS011;5522;42.696;23.494;2023-03-23T04:45:05;181.18;;;36.50;;
10939;SDS011;5522;42.696;23.494;2023-03-23T04:47:35;70.28;;;29.30;;
10939;SDS011;5522;42.696;23.494;2023-03-23T04:50:06;68.93;;;29.48;;
10939;SDS011;5522;42.696;23.494;2023-03-23T04:52:34;47.65;;;25.77;;
10939;SDS011;5522;42.696;23.494;2023-03-23T04:55:03;104.97;;;42.75;;
10939;SDS011;5522;42.696;23.494;2023-03-23T04:57:32;94.40;;;33.53;;
10939;SDS011;5522;42.696;23.494;2023-03-23T05:00:01;50.88;;;28.52;;
10939;SDS011;5522;42.696;23.494;2023-03-23T05:02:34;143.95;;;52.08;;
10939;SDS011;5522;42.696;23.494;2023-03-23T05:05:01;74.55;;;34.95;;
10939;SDS011;5522;42.696;23.494;2023-03-23T05:07:29;53.72;;;29.20;;
10939;SDS011;5522;42.696;23.494;2023-03-23T05:09:56;51.65;;;29.90;;
10939;SDS011;5522;42.696;23.494;2023-03-23T05:12:22;79.65;;;39.30;;
10939;SDS011;5522;42.696;23.494;2023-03-23T05:14:49;64.97;;;38.05;;
10939;SDS011;5522;42.696;23.494;2023-03-23T05:17:18;48.67;;;28.52;;
10939;SDS011;5522;42.696;23.494;2023-03-23T05:19:45;36.90;;;23.23;;
10939;SDS011;5522;42.696;23.494;2023-03-23T05:22:12;40.95;;;26.00;;
10939;SDS011;5522;42.696;23.494;2023-03-23T05:24:39;38.03;;;25.35;;
10939;SDS011;5522;42.696;23.494;2023-03-23T05:27:08;36.03;;;24.42;;
10939;SDS011;5522;42.696;23.494;2023-03-23T05:29:36;34.42;;;23.55;;
10939;SDS011;5522;42.696;23.494;2023-03-23T05:32:06;37.05;;;25.15;;
10939;SDS011;5522;42.696;23.494;2023-03-23T05:34:35;35.25;;;25.15;;
10939;SDS011;5522;42.696;23.494;2023-03-23T05:37:02;67.07;;;38.65;;
10939;SDS011;5522;42.696;23.494;2023-03-23T05:39:30;74.22;;;39.17;;
10939;SDS011;5522;42.696;23.494;2023-03-23T05:41:57;37.95;;;25.83;;
10939;SDS011;5522;42.696;23.494;2023-03-23T05:44:24;32.92;;;23.50;;
10939;SDS011;5522;42.696;23.494;2023-03-23T05:46:51;30.50;;;21.73;;
10939;SDS011;5522;42.696;23.494;2023-03-23T05:49:18;33.17;;;23.70;;
10939;SDS011;5522;42.696;23.494;2023-03-23T05:51:46;51.92;;;39.33;;
10939;SDS011;5522;42.696;23.494;2023-03-23T05:54:15;50.53;;;34.28;;
10939;SDS011;5522;42.696;23.494;2023-03-23T05:56:42;27.30;;;19.92;;
10939;SDS011;5522;42.696;23.494;2023-03-23T05:59:09;26.48;;;19.15;;
10939;SDS011;5522;42.696;23.494;2023-03-23T06:01:36;28.70;;;19.95;;
10939;SDS011;5522;42.696;23.494;2023-03-23T06:04:04;29.50;;;19.38;;
10939;SDS011;5522;42.696;23.494;2023-03-23T06:06:31;30.17;;;19.42;;
10939;SDS011;5522;42.696;23.494;2023-03-23T06:08:59;25.27;;;18.17;;
10939;SDS011;5522;42.696;23.494;2023-03-23T06:11:26;23.58;;;17.50;;
10939;SDS011;5522;42.696;23.494;2023-03-23T06:13:53;20.80;;;15.75;;
10939;SDS011;5522;42.696;23.494;2023-03-23T06:16:19;19.70;;;15.68;;
10939;SDS011;5522;42.696;23.494;2023-03-23T06:18:46;24.50;;;16.58;;
10939;SDS011;5522;42.696;23.494;2023-03-23T06:21:13;21.40;;;16.45;;
10939;SDS011;5522;42.696;23.494;2023-03-23T06:23:43;22.10;;;15.45;;
10939;SDS011;5522;42.696;23.494;2023-03-23T06:26:11;16.80;;;13.52;;
10939;SDS011;5522;42.696;23.494;2023-03-23T06:28:41;17.00;;;13.40;;
10939;SDS011;5522;42.696;23.494;2023-03-23T06:31:08;78.93;;;47.33;;
10939;SDS011;5522;42.696;23.494;2023-03-23T06:33:35;49.22;;;30.10;;
10939;SDS011;5522;42.696;23.494;2023-03-23T06:36:03;20.50;;;14.50;;
10939;SDS011;5522;42.696;23.494;2023-03-23T06:38:31;18.83;;;14.88;;
10939;SDS011;5522;42.696;23.494;2023-03-23T06:40:58;27.27;;;19.80;;
10939;SDS011;5522;42.696;23.494;2023-03-23T06:43:26;41.22;;;16.27;;
10939;SDS011;5522;42.696;23.494;2023-03-23T06:45:53;25.50;;;14.35;;
10939;SDS011;5522;42.696;23.494;2023-03-23T06:48:20;38.95;;;24.35;;
10939;SDS011;5522;42.696;23.494;2023-03-23T06:50:47;33.28;;;20.05;;
10939;SDS011;5522;42.696;23.494;2023-03-23T06:53:14;26.55;;;16.65;;
10939;SDS011;5522;42.696;23.494;2023-03-23T06:55:42;30.25;;;17.90;;
10939;SDS011;5522;42.696;23.494;2023-03-23T06:58:10;33.08;;;21.60;;
10939;SDS011;5522;42.696;23.494;2023-03-23T07:00:38;39.75;;;24.83;;
10939;SDS011;5522;42.696;23.494;2023-03-23T07:03:05;37.03;;;23.17;;
10939;SDS011;5522;42.696;23.494;2023-03-23T07:05:33;24.08;;;17.40;;
10939;SDS011;5522;42.696;23.494;2023-03-23T07:08:01;121.38;;;56.47;;
10939;SDS011;5522;42.696;23.494;2023-03-23T07:10:28;52.55;;;23.67;;
10939;SDS011;5522;42.696;23.494;2023-03-23T07:12:55;38.53;;;21.42;;
10939;SDS011;5522;42.696;23.494;2023-03-23T07:15:22;30.80;;;19.83;;
10939;SDS011;5522;42.696;23.494;2023-03-23T07:17:50;35.35;;;17.13;;
10939;SDS011;5522;42.696;23.494;2023-03-23T07:20:19;83.72;;;15.10;;
10939;SDS011;5522;42.696;23.494;2023-03-23T07:22:46;26.08;;;14.93;;
10939;SDS011;5522;42.696;23.494;2023-03-23T07:25:13;19.80;;;15.75;;
10939;SDS011;5522;42.696;23.494;2023-03-23T07:27:40;23.83;;;17.58;;
10939;SDS011;5522;42.696;23.494;2023-03-23T07:30:07;19.33;;;13.07;;
10939;SDS011;5522;42.696;23.494;2023-03-23T07:32:35;11.85;;;10.40;;
10939;SDS011;5522;42.696;23.494;2023-03-23T07:35:03;11.50;;;10.00;;
10939;SDS011;5522;42.696;23.494;2023-03-23T07:37:31;10.90;;;8.98;;
10939;SDS011;5522;42.696;23.494;2023-03-23T07:39:58;13.25;;;10.48;;
10939;SDS011;5522;42.696;23.494;2023-03-23T07:42:25;16.15;;;13.27;;
10939;SDS011;5522;42.696;23.494;2023-03-23T07:44:52;12.90;;;11.55;;
10939;SDS011;5522;42.696;23.494;2023-03-23T07:47:19;46.17;;;32.70;;
10939;SDS011;5522;42.696;23.494;2023-03-23T07:49:46;16.95;;;13.25;;
10939;SDS011;5522;42.696;23.494;2023-03-23T07:52:14;16.23;;;13.65;;
10939;SDS011;5522;42.696;23.494;2023-03-23T07:54:41;9.70;;;8.80;;
10939;SDS011;5522;42.696;23.494;2023-03-23T07:57:08;10.43;;;8.50;;
10939;SDS011;5522;42.696;23.494;2023-03-23T07:59:35;10.05;;;8.70;;
10939;SDS011;5522;42.696;23.494;2023-03-23T08:02:02;11.15;;;10.05;;
10939;SDS011;5522;42.696;23.494;2023-03-23T08:04:28;16.58;;;13.52;;
10939;SDS011;5522;42.696;23.494;2023-03-23T08:07:01;9.73;;;8.82;;
10939;SDS011;5522;42.696;23.494;2023-03-23T08:09:30;11.57;;;10.10;;
10939;SDS011;5522;42.696;23.494;2023-03-23T08:11:57;9.70;;;8.80;;
10939;SDS011;5522;42.696;23.494;2023-03-23T08:14:24;13.13;;;11.48;;
10939;SDS011;5522;42.696;23.494;2023-03-23T08:16:52;11.57;;;10.48;;
10939;SDS011;5522;42.696;23.494;2023-03-23T08:19:21;11.70;;;10.70;;
10939;SDS011;5522;42.696;23.494;2023-03-23T08:21:48;13.93;;;12.50;;
10939;SDS011;5522;42.696;23.494;2023-03-23T08:24:15;11.07;;;10.07;;
10939;SDS011;5522;42.696;23.494;2023-03-23T08:26:43;11.20;;;10.10;;
10939;SDS011;5522;42.696;23.494;2023-03-23T08:29:10;11.18;;;10.18;;
10939;SDS011;5522;42.696;23.494;2023-03-23T08:31:37;10.43;;;9.60;;
10939;SDS011;5522;42.696;23.494;2023-03-23T08:34:05;10.80;;;9.88;;
10939;SDS011;5522;42.696;23.494;2023-03-23T08:36:32;11.73;;;10.70;;
10939;SDS011;5522;42.696;23.494;2023-03-23T08:38:59;11.57;;;10.55;;
10939;SDS011;5522;42.696;23.494;2023-03-23T08:41:26;12.23;;;11.10;;
10939;SDS011;5522;42.696;23.494;2023-03-23T08:43:54;11.52;;;10.32;;
10939;SDS011;5522;42.696;23.494;2023-03-23T08:46:22;12.25;;;11.00;;
10939;SDS011;5522;42.696;23.494;2023-03-23T08:48:48;11.80;;;10.80;;
10939;SDS011;5522;42.696;23.494;2023-03-23T08:51:15;12.75;;;11.55;;
10939;SDS011;5522;42.696;23.494;2023-03-23T08:53:42;11.00;;;9.65;;
10939;SDS011;5522;42.696;23.494;2023-03-23T08:56:09;10.93;;;9.93;;
10939;SDS011;5522;42.696;23.494;2023-03-23T08:58:39;11.32;;;10.35;;
10939;SDS011;5522;42.696;23.494;2023-03-23T09:01:22;9.57;;;8.77;;
10939;SDS011;5522;42.696;23.494;2023-03-23T09:03:49;11.20;;;10.15;;
10939;SDS011;5522;42.696;23.494;2023-03-23T09:06:16;8.75;;;8.07;;
10939;SDS011;5522;42.696;23.494;2023-03-23T09:08:43;9.10;;;8.35;;
10939;SDS011;5522;42.696;23.494;2023-03-23T09:11:10;8.30;;;7.68;;
10939;SDS011;5522;42.696;23.494;2023-03-23T09:13:38;11.90;;;10.93;;
10939;SDS011;5522;42.696;23.494;2023-03-23T09:16:05;8.93;;;8.05;;
10939;SDS011;5522;42.696;23.494;2023-03-23T09:18:35;8.13;;;7.35;;
10939;SDS011;5522;42.696;23.494;2023-03-23T09:21:02;7.35;;;6.65;;
10939;SDS011;5522;42.696;23.494;2023-03-23T09:23:30;3.67;;;3.47;;
10939;SDS011;5522;42.696;23.494;2023-03-23T09:25:58;7.05;;;6.53;;
10939;SDS011;5522;42.696;23.494;2023-03-23T09:28:26;7.60;;;6.93;;
10939;SDS011;5522;42.696;23.494;2023-03-23T09:30:54;2.30;;;2.20;;
10939;SDS011;5522;42.696;23.494;2023-03-23T09:33:22;2.50;;;2.40;;
10939;SDS011;5522;42.696;23.494;2023-03-23T09:35:52;3.33;;;3.22;;
10939;SDS011;5522;42.696;23.494;2023-03-23T09:38:19;4.40;;;3.97;;
10939;SDS011;5522;42.696;23.494;2023-03-23T09:40:47;2.40;;;2.30;;
10939;SDS011;5522;42.696;23.494;2023-03-23T09:43:32;3.40;;;3.30;;
10939;SDS011;5522;42.696;23.494;2023-03-23T09:46:17;5.10;;;4.70;;
10939;SDS011;5522;42.696;23.494;2023-03-23T09:48:53;4.25;;;3.80;;
10939;SDS011;5522;42.696;23.494;2023-03-23T09:51:29;4.22;;;4.03;;
10939;SDS011;5522;42.696;23.494;2023-03-23T09:54:04;4.45;;;4.25;;
10939;SDS011;5522;42.696;23.494;2023-03-23T09:56:37;3.45;;;3.25;;
10939;SDS011;5522;42.696;23.494;2023-03-23T09:59:07;3.70;;;3.50;;
10939;SDS011;5522;42.696;23.494;2023-03-23T10:01:40;3.28;;;3.17;;
10939;SDS011;5522;42.696;23.494;2023-03-23T10:04:10;1.80;;;1.67;;
10939;SDS011;5522;42.696;23.494;2023-03-23T10:06:43;1.85;;;1.75;;
10939;SDS011;5522;42.696;23.494;2023-03-23T10:09:14;3.35;;;2.45;;
10939;SDS011;5522;42.696;23.494;2023-03-23T10:11:45;3.15;;;2.85;;
10939;SDS011;5522;42.696;23.494;2023-03-23T10:14:25;2.80;;;1.90;;
10939;SDS011;5522;42.696;23.494;2023-03-23T10:17:00;11.40;;;10.07;;
10939;SDS011;5522;42.696;23.494;2023-03-23T10:19:39;3.20;;;3.00;;
10939;SDS011;5522;42.696;23.494;2023-03-23T10:22:14;2.38;;;2.30;;
10939;SDS011;5522;42.696;23.494;2023-03-23T10:24:47;2.85;;;2.75;;
10939;SDS011;5522;42.696;23.494;2023-03-23T10:27:18;2.85;;;2.33;;
10939;SDS011;5522;42.696;23.494;2023-03-23T10:29:50;2.10;;;1.92;;
10939;SDS011;5522;42.696;23.494;2023-03-23T10:32:34;2.05;;;1.95;;
10939;SDS011;5522;42.696;23.494;2023-03-23T10:35:06;2.00;;;1.90;;
10939;SDS011;5522;42.696;23.494;2023-03-23T10:37:42;2.03;;;2.03;;
10939;SDS011;5522;42.696;23.494;2023-03-23T10:40:15;2.17;;;2.15;;
10939;SDS011;5522;42.696;23.494;2023-03-23T10:42:45;1.98;;;1.85;;
10939;SDS011;5522;42.696;23.494;2023-03-23T10:45:15;2.67;;;2.58;;
10939;SDS011;5522;42.696;23.494;2023-03-23T10:47:45;2.50;;;2.40;;
10939;SDS011;5522;42.696;23.494;2023-03-23T10:50:23;2.38;;;2.28;;
10939;SDS011;5522;42.696;23.494;2023-03-23T10:52:55;3.10;;;3.00;;
10939;SDS011;5522;42.696;23.494;2023-03-23T10:55:24;3.35;;;3.15;;
10939;SDS011;5522;42.696;23.494;2023-03-23T10:58:04;2.88;;;2.78;;
10939;SDS011;5522;42.696;23.494;2023-03-23T11:00:33;2.80;;;2.65;;
10939;SDS011;5522;42.696;23.494;2023-03-23T11:03:19;2.78;;;2.58;;
10939;SDS011;5522;42.696;23.494;2023-03-23T11:05:50;2.92;;;2.72;;
10939;SDS011;5522;42.696;23.494;2023-03-23T11:08:20;2.67;;;2.58;;
10939;SDS011;5522;42.696;23.494;2023-03-23T11:10:49;3.55;;;3.35;;
10939;SDS011;5522;42.696;23.494;2023-03-23T11:13:19;3.00;;;2.80;;
10939;SDS011;5522;42.696;23.494;2023-03-23T11:15:47;3.47;;;3.28;;
10939;SDS011;5522;42.696;23.494;2023-03-23T11:18:18;2.75;;;2.65;;
10939;SDS011;5522;42.696;23.494;2023-03-23T11:20:48;2.75;;;2.65;;
10939;SDS011;5522;42.696;23.494;2023-03-23T11:23:21;2.70;;;2.50;;
10939;SDS011;5522;42.696;23.494;2023-03-23T11:25:53;2.88;;;2.60;;
10939;SDS011;5522;42.696;23.494;2023-03-23T11:28:26;2.63;;;2.45;;
10939;SDS011;5522;42.696;23.494;2023-03-23T11:30:57;2.92;;;2.72;;
10939;SDS011;5522;42.696;23.494;2023-03-23T11:33:28;2.58;;;2.47;;
10939;SDS011;5522;42.696;23.494;2023-03-23T11:35:56;2.47;;;2.38;;
10939;SDS011;5522;42.696;23.494;2023-03-23T11:38:25;3.03;;;2.55;;
10939;SDS011;5522;42.696;23.494;2023-03-23T11:40:53;2.67;;;2.58;;
10939;SDS011;5522;42.696;23.494;2023-03-23T11:43:21;2.78;;;2.67;;
10939;SDS011;5522;42.696;23.494;2023-03-23T11:45:52;2.67;;;2.58;;
10939;SDS011;5522;42.696;23.494;2023-03-23T11:48:26;2.72;;;2.63;;
10939;SDS011;5522;42.696;23.494;2023-03-23T11:51:00;2.20;;;2.03;;
10939;SDS011;5522;42.696;23.494;2023-03-23T11:53:35;2.78;;;2.67;;
10939;SDS011;5522;42.696;23.494;2023-03-23T11:56:13;2.50;;;2.40;;
10939;SDS011;5522;42.696;23.494;2023-03-23T11:58:49;3.03;;;2.92;;
10939;SDS011;5522;42.696;23.494;2023-03-23T12:01:21;2.00;;;1.90;;
10939;SDS011;5522;42.696;23.494;2023-03-23T12:03:58;2.90;;;2.75;;
10939;SDS011;5522;42.696;23.494;2023-03-23T12:06:38;4.55;;;2.65;;
10939;SDS011;5522;42.696;23.494;2023-03-23T12:09:16;2.13;;;2.03;;
10939;SDS011;5522;42.696;23.494;2023-03-23T12:11:56;2.72;;;2.50;;
10939;SDS011;5522;42.696;23.494;2023-03-23T12:14:33;2.35;;;2.25;;
10939;SDS011;5522;42.696;23.494;2023-03-23T12:17:10;2.75;;;2.65;;
10939;SDS011;5522;42.696;23.494;2023-03-23T12:19:49;2.95;;;2.75;;
10939;SDS011;5522;42.696;23.494;2023-03-23T12:22:39;2.50;;;2.40;;
10939;SDS011;5522;42.696;23.494;2023-03-23T12:25:19;2.40;;;2.30;;
10939;SDS011;5522;42.696;23.494;2023-03-23T12:28:00;2.50;;;2.40;;
10939;SDS011;5522;42.696;23.494;2023-03-23T12:30:38;2.30;;;2.20;;
10939;SDS011;5522;42.696;23.494;2023-03-23T12:33:18;2.00;;;1.98;;
10939;SDS011;5522;42.696;23.494;2023-03-23T12:35:56;2.40;;;2.35;;
10939;SDS011;5522;42.696;23.494;2023-03-23T12:41:31;2.15;;;2.10;;
10939;SDS011;5522;42.696;23.494;2023-03-23T12:44:07;4.70;;;1.83;;
10939;SDS011;5522;42.696;23.494;2023-03-23T12:46:48;1.98;;;1.88;;
10939;SDS011;5522;42.696;23.494;2023-03-23T12:49:25;1.58;;;1.55;;
10939;SDS011;5522;42.696;23.494;2023-03-23T12:51:58;1.83;;;1.73;;
10939;SDS011;5522;42.696;23.494;2023-03-23T12:54:30;4.82;;;2.38;;
10939;SDS011;5522;42.696;23.494;2023-03-23T12:57:08;1.65;;;1.42;;
10939;SDS011;5522;42.696;23.494;2023-03-23T12:59:40;2.60;;;2.17;;
10939;SDS011;5522;42.696;23.494;2023-03-23T13:02:15;4.45;;;1.50;;
10939;SDS011;5522;42.696;23.494;2023-03-23T13:04:47;2.17;;;1.98;;
10939;SDS011;5522;42.696;23.494;2023-03-23T13:07:19;1.80;;;1.80;;
10939;SDS011;5522;42.696;23.494;2023-03-23T13:09:52;1.80;;;1.70;;
10939;SDS011;5522;42.696;23.494;2023-03-23T13:12:30;4.32;;;2.10;;
10939;SDS011;5522;42.696;23.494;2023-03-23T13:15:02;1.73;;;1.63;;
10939;SDS011;5522;42.696;23.494;2023-03-23T13:17:38;1.70;;;1.60;;
10939;SDS011;5522;42.696;23.494;2023-03-23T13:23:20;3.60;;;1.95;;
10939;SDS011;5522;42.696;23.494;2023-03-23T13:25:49;2.30;;;2.20;;
10939;SDS011;5522;42.696;23.494;2023-03-23T13:28:23;2.10;;;2.00;;
10939;SDS011;5522;42.696;23.494;2023-03-23T13:30:57;2.33;;;2.20;;
10939;SDS011;5522;42.696;23.494;2023-03-23T13:33:25;3.08;;;2.30;;
10939;SDS011;5522;42.696;23.494;2023-03-23T13:35:56;2.92;;;2.72;;
10939;SDS011;5522;42.696;23.494;2023-03-23T13:38:30;2.08;;;1.88;;
10939;SDS011;5522;42.696;23.494;2023-03-23T13:40:57;2.40;;;2.08;;
10939;SDS011;5522;42.696;23.494;2023-03-23T13:43:34;2.08;;;1.85;;
10939;SDS011;5522;42.696;23.494;2023-03-23T13:46:07;2.55;;;2.35;;
10939;SDS011;5522;42.696;23.494;2023-03-23T13:48:40;2.10;;;2.00;;
10939;SDS011;5522;42.696;23.494;2023-03-23T13:51:24;2.10;;;2.00;;
10939;SDS011;5522;42.696;23.494;2023-03-23T13:54:03;2.85;;;2.65;;
10939;SDS011;5522;42.696;23.494;2023-03-23T13:56:35;1.63;;;1.60;;
10939;SDS011;5522;42.696;23.494;2023-03-23T13:59:08;1.90;;;1.88;;
10939;SDS011;5522;42.696;23.494;2023-03-23T14:01:40;2.40;;;2.20;;
10939;SDS011;5522;42.696;23.494;2023-03-23T14:04:10;2.33;;;2.10;;
10939;SDS011;5522;42.696;23.494;2023-03-23T14:06:40;2.17;;;2.08;;
10939;SDS011;5522;42.696;23.494;2023-03-23T14:09:10;1.58;;;1.58;;
10939;SDS011;5522;42.696;23.494;2023-03-23T14:11:47;1.88;;;1.80;;
10939;SDS011;5522;42.696;23.494;2023-03-23T14:14:20;2.78;;;2.58;;
10939;SDS011;5522;42.696;23.494;2023-03-23T14:16:51;2.58;;;2.47;;
10939;SDS011;5522;42.696;23.494;2023-03-23T14:19:19;2.25;;;2.15;;
10939;SDS011;5522;42.696;23.494;2023-03-23T14:21:50;2.08;;;1.98;;
10939;SDS011;5522;42.696;23.494;2023-03-23T14:24:20;1.98;;;1.73;;
10939;SDS011;5522;42.696;23.494;2023-03-23T14:26:49;1.85;;;1.73;;
10939;SDS011;5522;42.696;23.494;2023-03-23T14:29:20;2.33;;;1.50;;
10939;SDS011;5522;42.696;23.494;2023-03-23T14:31:53;1.60;;;1.20;;
10939;SDS011;5522;42.696;23.494;2023-03-23T14:34:22;1.23;;;1.23;;
10939;SDS011;5522;42.696;23.494;2023-03-23T14:36:52;1.50;;;1.20;;
10939;SDS011;5522;42.696;23.494;2023-03-23T14:39:22;1.40;;;1.30;;
10939;SDS011;5522;42.696;23.494;2023-03-23T14:41:52;1.73;;;1.58;;
10939;SDS011;5522;42.696;23.494;2023-03-23T14:44:23;2.40;;;1.52;;
10939;SDS011;5522;42.696;23.494;2023-03-23T14:46:53;1.63;;;1.52;;
10939;SDS011;5522;42.696;23.494;2023-03-23T14:49:24;2.35;;;1.42;;
10939;SDS011;5522;42.696;23.494;2023-03-23T14:51:55;3.17;;;1.42;;
10939;SDS011;5522;42.696;23.494;2023-03-23T14:54:22;1.65;;;1.55;;
10939;SDS011;5522;42.696;23.494;2023-03-23T14:56:51;1.10;;;1.00;;
10939;SDS011;5522;42.696;23.494;2023-03-23T14:59:19;1.52;;;1.30;;
10939;SDS011;5522;42.696;23.494;2023-03-23T15:01:48;1.15;;;1.15;;
10939;SDS011;5522;42.696;23.494;2023-03-23T15:04:18;1.30;;;1.20;;
10939;SDS011;5522;42.696;23.494;2023-03-23T15:06:46;2.17;;;1.13;;
10939;SDS011;5522;42.696;23.494;2023-03-23T15:09:17;1.50;;;1.40;;